North Augusta, South Carolina
Current Conditions -  °F | °C
As of 6:53 AM on Thursday 23 Oct 2014 (Local Time) from KDNL Reporting Station
Clear Clear  
Wind Chill: 44°   Ceiling: Unl
Heat Index: 48°   Visibility: 10mi
Dew Point: 40°   Wind: 8mph
Humidity: 74%   Direction: 340°NNW
Pressure: 30.1"   Gusts: NA
Location:  33.5°N, 81.97°W
Report Text: KDNL 231053Z AUTO 34007KT 10SM CLR 09/04 A3010 RMK AO2 SLP190 T00890044
Loading
Personal Weather Stations






























Interactive Weather Map
Tropical Storm Tracking
New forecast layout! Learn more

10-Day Weather Forecast

Advertisements
Track Severe Weather on mobile